KAQW

Details ICAO KAQW
Name HARRIMAN AND WEST
Region United States
Timezone America/New_York (UTC-4.0)
Plans Departing 11
Arriving 6
Stats Elevation 654 ft / 199 m (AMSL)
Location 42.695833° -73.170281°
Runways 1
Magnetic Variation 13.783° W
Sunrise 2018-05-21 09:26:08 UTC / 2018-05-21 05:26:08 Local
Sunset 2018-05-22 00:15:18 UTC / 2018-05-21 20:15:18 Local
Advertisement - Login to hide

Runways

ID Width Length Bearing (true) Bearing (mag) Surface Threshold Offset Overrun Length
11 100 ft / 30 m 4,266 ft / 1,300 m 109.43° 123.21° Asphalt 1,180 ft / 360 m 0 ft / 0 m
29 100 ft / 30 m 4,266 ft / 1,300 m 289.44° 303.22° Asphalt 800 ft / 244 m 0 ft / 0 m

Map

Weather


0- 5 10 15 20 25 30 35+ Temperature / ° C

Clouds and Precipitation
Forecast for 2018-05-21 12:00 UTC. Updated 2 hours ago

Ground ~20,000 ft ~40,000 ft Winds

METAR

KAQW 211252Z AUTO 33004KT 10SM CLR 14/08 A3021 RMK AO2 SLP232 T01440083

TAF

Not found

Frequencies

Recorded 134.77 MHz ASOS
Unicom 122.80 MHz CTAF/UNICOM
Warning: Do not use this data for real-world aviation or navigation. No guarantee of current accuracy is given.